aviador You're here:

KPRO Decoded Metar

PERRY MUNI in IA, USA
Report Time2017-11-24 21:35:00
UTC Time2017-11-24 21:51:25
Flight Rules vfr VFR
Wind340° at 14 kt
W.Decomp.*RWY 32: 13.3 kt HW 4.3 kt RCW
RWY 04: 6.6 kt HW 12.4 kt LCW
W.Rank340° ranks 10
Current wind is above 340° avg. (9.4)
Visibility9999 m
Phenomena:N/A
Clouds:N/A
Expected CloudBase > 6,400 ft AGL from Temp-Dew spread
CeilingNone
Temp18°C (ISA +5)
Dew Point02°C (34% RH)
AAT11.3°C
QNH1001 hPa
Density Alt2,103 ft
Elevation1,010 ft
Report Wrong Elevation
Raw Report
KPRO 242135Z AUTO 34014KT 10SM CLR 18/02 A2956 RMK AO2
T01750022=

Extra information for KPRO:More info

Metar Taf Metar & Taf Last 4 Metars F.Rules Stats Wind Profile Meteogram Temp Stats Airport Information Weather charts Add Link Nearby VenuesMetar ALERT Operation Metar Decoded Social comments

AIRNAV info for KPRO